createdAt,value
2022-09-10T00:01:37.793Z,15.60
2022-09-10T00:04:11.332Z,15.70
2022-09-10T00:06:39.422Z,15.70
2022-09-10T00:09:08.062Z,15.60
2022-09-10T00:11:38.632Z,15.60
2022-09-10T00:14:08.067Z,15.50
2022-09-10T00:16:37.570Z,15.50
2022-09-10T00:19:06.617Z,15.40
2022-09-10T00:21:34.621Z,15.50
2022-09-10T00:24:03.543Z,15.50
2022-09-10T00:26:34.592Z,15.60
2022-09-10T00:29:03.143Z,15.60
2022-09-10T00:31:31.944Z,15.80
2022-09-10T00:34:03.149Z,15.80
2022-09-10T00:36:33.759Z,15.80
2022-09-10T00:39:04.955Z,15.60
2022-09-10T00:41:35.431Z,15.60
2022-09-10T00:44:05.758Z,15.60
2022-09-10T00:46:39.979Z,15.50
2022-09-10T00:49:15.764Z,15.60
2022-09-10T00:51:45.219Z,15.60
2022-09-10T00:54:13.921Z,15.60
2022-09-10T00:56:43.128Z,15.60
2022-09-10T00:59:14.037Z,15.80
2022-09-10T01:01:42.104Z,15.80
2022-09-10T01:04:11.914Z,15.70
2022-09-10T01:06:41.524Z,15.70
2022-09-10T01:09:10.726Z,15.70
2022-09-10T01:11:53.308Z,15.80
2022-09-10T01:14:45.643Z,15.80
2022-09-10T01:17:22.140Z,15.70
2022-09-10T01:20:26.929Z,15.60
2022-09-10T01:23:15.706Z,15.50
2022-09-10T01:25:55.065Z,15.50
2022-09-10T01:28:31.581Z,15.40
2022-09-10T01:31:11.466Z,15.40
2022-09-10T01:33:43.577Z,15.40
2022-09-10T01:36:15.498Z,15.40
2022-09-10T01:38:43.805Z,15.40
2022-09-10T01:41:11.809Z,15.50
2022-09-10T01:43:42.050Z,15.40
2022-09-10T01:46:22.223Z,15.40
2022-09-10T01:49:18.831Z,15.40
2022-09-10T01:52:03.348Z,15.30
2022-09-10T01:54:48.722Z,15.40
2022-09-10T01:57:27.900Z,15.40
2022-09-10T02:00:03.197Z,15.30
2022-09-10T02:02:37.166Z,15.30
2022-09-10T02:05:07.377Z,15.30
2022-09-10T02:07:37.863Z,15.30
2022-09-10T02:10:09.605Z,15.20
2022-09-10T02:12:40.003Z,15.10
2022-09-10T02:15:11.586Z,15.20
2022-09-10T02:17:41.178Z,15.20
2022-09-10T02:20:14.536Z,15.30
2022-09-10T02:22:48.894Z,15.30
2022-09-10T02:25:17.364Z,15.20
2022-09-10T02:27:46.023Z,15.30
2022-09-10T02:30:16.142Z,15.30
2022-09-10T02:32:44.104Z,15.50
2022-09-10T02:35:12.104Z,15.40
2022-09-10T02:37:40.092Z,15.40
2022-09-10T02:40:09.086Z,15.50
2022-09-10T02:42:37.499Z,15.50
2022-09-10T02:45:06.253Z,15.50
2022-09-10T02:47:35.606Z,15.40
2022-09-10T02:50:03.652Z,15.30
2022-09-10T02:52:31.641Z,15.40
2022-09-10T02:55:00.090Z,15.40
2022-09-10T02:57:28.419Z,15.50
2022-09-10T02:59:56.938Z,15.40
2022-09-10T03:02:25.461Z,15.40
2022-09-10T03:04:54.921Z,15.40
2022-09-10T03:07:22.976Z,15.40
2022-09-10T03:09:51.073Z,15.30
2022-09-10T03:12:19.025Z,15.30
2022-09-10T03:14:47.319Z,15.30
2022-09-10T03:17:15.638Z,15.40
2022-09-10T03:19:43.650Z,15.40
2022-09-10T03:22:13.017Z,15.40
2022-09-10T03:24:41.046Z,15.40
2022-09-10T03:27:09.156Z,15.30
2022-09-10T03:29:37.124Z,15.20
2022-09-10T03:32:05.337Z,15.10
2022-09-10T03:34:33.281Z,15.10
2022-09-10T03:37:01.362Z,15.10
2022-09-10T03:39:30.692Z,15.00
2022-09-10T03:41:58.702Z,15.00
2022-09-10T03:44:26.786Z,15.00
2022-09-10T03:46:54.781Z,15.00
2022-09-10T03:49:22.956Z,15.10
2022-09-10T03:51:50.984Z,15.10
2022-09-10T03:54:19.371Z,15.10
2022-09-10T03:56:48.757Z,15.10
2022-09-10T03:59:17.311Z,15.10
2022-09-10T04:01:46.062Z,15.10
2022-09-10T04:04:14.947Z,15.00
2022-09-10T04:06:44.559Z,15.10
2022-09-10T04:09:13.015Z,15.10
2022-09-10T04:11:41.050Z,15.10
2022-09-10T04:14:10.527Z,15.10
2022-09-10T04:16:43.277Z,15.10
2022-09-10T04:19:11.394Z,15.10
2022-09-10T04:21:39.385Z,15.10
2022-09-10T04:24:10.060Z,15.10
2022-09-10T04:26:38.058Z,15.10
2022-09-10T04:29:06.167Z,15.00
2022-09-10T04:31:35.636Z,15.00
2022-09-10T04:34:03.684Z,15.00
2022-09-10T04:36:31.822Z,14.90
2022-09-10T04:39:00.125Z,14.90
2022-09-10T04:41:28.152Z,14.90
2022-09-10T04:43:56.129Z,14.90
2022-09-10T04:46:24.771Z,14.90
2022-09-10T04:48:54.377Z,15.10
2022-09-10T04:51:22.624Z,15.00
2022-09-10T04:53:50.780Z,15.00
2022-09-10T04:56:20.122Z,15.00
2022-09-10T04:58:48.455Z,15.00
2022-09-10T05:01:16.482Z,14.90
2022-09-10T05:03:44.579Z,14.90
2022-09-10T05:06:14.000Z,14.90
2022-09-10T05:08:41.970Z,14.90
2022-09-10T05:11:10.236Z,14.90
2022-09-10T05:13:38.457Z,14.90
2022-09-10T05:16:07.441Z,14.80
2022-09-10T05:18:35.616Z,14.80
2022-09-10T05:21:05.312Z,14.80
2022-09-10T05:23:34.728Z,14.90
2022-09-10T05:26:03.191Z,14.80
2022-09-10T05:28:31.311Z,14.70
2022-09-10T05:30:59.688Z,14.80
2022-09-10T05:33:27.723Z,14.70
2022-09-10T05:35:55.741Z,14.80
2022-09-10T05:38:24.022Z,14.80
2022-09-10T05:40:54.022Z,14.90
2022-09-10T05:43:22.111Z,14.90
2022-09-10T05:45:51.977Z,14.90
2022-09-10T05:48:20.122Z,14.90
2022-09-10T05:50:48.361Z,15.00
2022-09-10T05:53:17.148Z,15.10
2022-09-10T05:55:46.144Z,15.00
2022-09-10T05:58:16.198Z,15.00
2022-09-10T06:00:44.311Z,15.00
2022-09-10T06:03:12.753Z,15.00
2022-09-10T06:05:40.883Z,15.00
2022-09-10T06:08:09.253Z,15.10
2022-09-10T06:10:37.406Z,15.10
2022-09-10T06:13:06.254Z,15.10
2022-09-10T06:15:36.087Z,15.10
2022-09-10T06:18:04.138Z,15.10
2022-09-10T06:20:32.176Z,15.20
2022-09-10T06:23:00.196Z,15.00
2022-09-10T06:25:28.807Z,15.20
2022-09-10T06:27:56.919Z,15.10
2022-09-10T06:30:24.978Z,15.10
2022-09-10T06:32:54.531Z,15.20
2022-09-10T06:35:22.932Z,15.20
2022-09-10T06:37:50.953Z,15.30
2022-09-10T06:40:19.546Z,15.40
2022-09-10T06:42:48.569Z,15.40
2022-09-10T06:45:16.805Z,15.60
2022-09-10T06:50:34.323Z,15.60
2022-09-10T06:53:02.404Z,15.60
2022-09-10T06:55:30.631Z,15.60
2022-09-10T06:58:00.760Z,15.60
2022-09-10T07:00:28.914Z,15.60
2022-09-10T07:02:56.988Z,15.60
2022-09-10T07:05:25.094Z,15.50
2022-09-10T07:07:55.554Z,15.50
2022-09-10T07:10:23.641Z,15.50
2022-09-10T07:12:51.736Z,15.60
2022-09-10T07:15:19.726Z,15.70
2022-09-10T07:17:47.697Z,15.80
2022-09-10T07:20:15.850Z,15.90
2022-09-10T07:22:44.227Z,16.00
2022-09-10T07:25:13.853Z,16.00
2022-09-10T07:27:41.982Z,16.20
2022-09-10T07:30:11.102Z,16.20
2022-09-10T07:32:40.444Z,16.30
2022-09-10T07:35:09.052Z,16.30
2022-09-10T07:37:39.107Z,16.30
2022-09-10T07:40:08.623Z,16.30
2022-09-10T07:42:38.256Z,16.20
2022-09-10T07:47:14.174Z,19.50
2022-09-10T07:49:43.610Z,16.30
2022-09-10T07:52:11.898Z,16.20
2022-09-10T07:54:39.989Z,16.20
2022-09-10T07:57:08.127Z,16.10
2022-09-10T07:59:36.092Z,16.20
2022-09-10T08:02:06.012Z,16.30
2022-09-10T08:04:37.230Z,16.70
2022-09-10T08:07:05.534Z,17.20
2022-09-10T08:09:33.548Z,17.70
2022-09-10T08:12:01.602Z,18.10
2022-09-10T08:14:30.012Z,18.40
2022-09-10T08:16:58.244Z,18.90
2022-09-10T08:19:26.301Z,19.10
2022-09-10T08:21:56.759Z,19.20
2022-09-10T08:24:24.775Z,19.50
2022-09-10T08:26:53.013Z,19.70
2022-09-10T08:29:21.032Z,19.80
2022-09-10T08:31:49.065Z,19.50
2022-09-10T08:34:17.020Z,19.30
2022-09-10T08:36:45.182Z,19.10
2022-09-10T08:39:15.024Z,18.90
2022-09-10T08:41:49.240Z,18.70
2022-09-10T08:44:31.299Z,18.60
2022-09-10T08:47:07.439Z,18.60
2022-09-10T08:49:39.199Z,18.50
2022-09-10T08:52:14.708Z,18.40
2022-09-10T08:54:50.742Z,18.40
2022-09-10T08:57:25.292Z,18.30
2022-09-10T08:59:56.681Z,18.30
2022-09-10T09:02:48.304Z,18.30
2022-09-10T09:05:20.330Z,18.40
2022-09-10T09:07:49.510Z,18.40
2022-09-10T09:10:45.256Z,18.40
2022-09-10T09:13:35.131Z,18.30
2022-09-10T09:16:19.214Z,18.20
2022-09-10T09:19:02.674Z,18.10
2022-09-10T09:21:41.671Z,18.30
2022-09-10T09:24:20.383Z,18.40
2022-09-10T09:26:50.026Z,18.50
2022-09-10T09:29:24.803Z,18.60
2022-09-10T09:31:58.023Z,18.60
2022-09-10T09:34:33.207Z,18.60
2022-09-10T09:37:04.471Z,18.50
2022-09-10T09:39:38.677Z,18.40
2022-09-10T09:42:13.305Z,18.30
2022-09-10T09:44:48.375Z,18.40
2022-09-10T09:47:16.463Z,18.40
2022-09-10T09:49:45.121Z,18.40
2022-09-10T09:52:20.613Z,18.50
2022-09-10T09:57:43.836Z,18.70
2022-09-10T10:00:36.439Z,19.10
2022-09-10T10:03:13.740Z,19.50
2022-09-10T10:05:42.486Z,19.70
2022-09-10T10:08:30.195Z,19.80
2022-09-10T10:10:59.243Z,19.50
2022-09-10T10:13:37.279Z,19.50
2022-09-10T10:16:16.210Z,19.20
2022-09-10T10:18:45.040Z,19.10
2022-09-10T10:21:19.822Z,19.30
2022-09-10T10:23:48.371Z,19.40
2022-09-10T10:26:31.196Z,19.40
2022-09-10T10:29:04.165Z,19.20
2022-09-10T10:31:39.784Z,19.30
2022-09-10T10:34:32.482Z,19.30
2022-09-10T10:37:09.665Z,19.30
2022-09-10T10:40:07.550Z,19.00
2022-09-10T10:42:39.238Z,18.90
2022-09-10T10:45:37.325Z,18.80
2022-09-10T10:48:12.348Z,18.60
2022-09-10T10:50:53.080Z,18.30
2022-09-10T10:53:47.100Z,18.10
2022-09-10T10:56:21.744Z,18.20
2022-09-10T10:59:05.464Z,18.30
2022-09-10T11:01:39.706Z,18.20
2022-09-10T11:04:36.113Z,18.20
2022-09-10T11:07:10.948Z,18.10
2022-09-10T11:09:45.268Z,18.30
2022-09-10T11:12:19.210Z,18.40
2022-09-10T11:14:51.326Z,18.70
2022-09-10T11:17:28.137Z,19.10
2022-09-10T11:20:27.197Z,19.20
2022-09-10T11:22:57.259Z,19.10
2022-09-10T11:25:30.133Z,18.70
2022-09-10T11:28:05.644Z,18.70
2022-09-10T11:30:36.127Z,18.60
2022-09-10T11:33:12.454Z,18.90
2022-09-10T11:35:44.199Z,19.40
2022-09-10T11:38:20.656Z,19.80
2022-09-10T11:40:56.341Z,20.20
2022-09-10T11:43:34.037Z,20.50
2022-09-10T11:46:06.136Z,20.40
2022-09-10T11:48:40.449Z,20.00
2022-09-10T11:51:15.890Z,20.00
2022-09-10T11:53:44.217Z,20.20
2022-09-10T11:56:30.121Z,20.50
2022-09-10T11:59:14.329Z,20.90
2022-09-10T12:02:07.220Z,20.90
2022-09-10T12:04:53.754Z,21.00
2022-09-10T12:07:33.408Z,20.90
2022-09-10T12:10:14.433Z,21.00
2022-09-10T12:12:45.038Z,21.20
2022-09-10T12:15:20.047Z,21.50
2022-09-10T12:17:52.003Z,21.40
2022-09-10T12:20:28.756Z,21.40
2022-09-10T12:22:57.468Z,21.60
2022-09-10T12:25:34.155Z,21.70
2022-09-10T12:28:05.496Z,21.90
2022-09-10T12:31:03.825Z,21.50
2022-09-10T12:34:12.431Z,21.60
2022-09-10T12:37:17.141Z,21.30
2022-09-10T12:39:46.738Z,20.90
2022-09-10T12:42:38.834Z,20.80
2022-09-10T12:45:10.669Z,21.00
2022-09-10T12:47:56.385Z,21.40
2022-09-10T12:50:31.843Z,21.30
2022-09-10T12:53:25.998Z,21.00
2022-09-10T12:56:02.524Z,20.80
2022-09-10T12:58:50.052Z,20.50
2022-09-10T13:01:31.249Z,20.20
2022-09-10T13:04:02.456Z,20.00
2022-09-10T13:06:38.274Z,19.70
2022-09-10T13:09:18.493Z,19.50
2022-09-10T13:11:52.244Z,19.60
2022-09-10T13:14:24.727Z,19.60
2022-09-10T13:16:53.069Z,19.80
2022-09-10T13:19:52.226Z,20.00
2022-09-10T13:22:59.005Z,20.10
2022-09-10T13:25:35.162Z,20.10
2022-09-10T13:28:25.334Z,19.90
2022-09-10T13:31:02.785Z,19.70
2022-09-10T13:33:34.437Z,19.40
2022-09-10T13:36:14.854Z,19.20
2022-09-10T13:39:16.501Z,19.10
2022-09-10T13:42:08.961Z,19.10
2022-09-10T13:45:01.062Z,19.10
2022-09-10T13:47:36.024Z,19.00
2022-09-10T13:50:13.397Z,19.00
2022-09-10T13:52:45.608Z,18.90
2022-09-10T13:55:19.694Z,18.90
2022-09-10T13:57:51.231Z,18.90
2022-09-10T14:00:27.509Z,18.80
2022-09-10T14:02:56.897Z,18.80
2022-09-10T14:05:34.870Z,18.70
2022-09-10T14:08:07.392Z,18.80
2022-09-10T14:10:50.317Z,18.80
2022-09-10T14:13:22.449Z,18.80
2022-09-10T14:15:54.480Z,18.80
2022-09-10T14:18:26.139Z,18.70
2022-09-10T14:20:54.559Z,18.80
2022-09-10T14:23:22.803Z,18.80
2022-09-10T14:26:10.691Z,18.90
2022-09-10T14:28:50.767Z,18.90
2022-09-10T14:31:36.841Z,18.90
2022-09-10T14:34:31.531Z,19.00
2022-09-10T14:37:00.308Z,19.10
2022-09-10T14:39:29.140Z,19.20
2022-09-10T14:42:11.826Z,19.20
2022-09-10T14:44:43.684Z,19.10
2022-09-10T14:47:30.154Z,19.10
2022-09-10T14:50:26.748Z,19.10
2022-09-10T14:52:54.942Z,19.20
2022-09-10T14:55:25.320Z,19.20
2022-09-10T14:57:55.578Z,19.10
2022-09-10T15:00:24.286Z,19.20
2022-09-10T15:02:56.118Z,19.20
2022-09-10T15:05:24.736Z,19.20
2022-09-10T15:07:52.807Z,19.10
2022-09-10T15:10:20.844Z,19.10
2022-09-10T15:12:52.181Z,19.10
2022-09-10T15:15:20.242Z,19.10
2022-09-10T15:17:48.316Z,19.10
2022-09-10T15:20:18.068Z,19.00
2022-09-10T15:22:46.303Z,19.00
2022-09-10T15:25:33.905Z,19.00
2022-09-10T15:28:04.332Z,18.90
2022-09-10T15:30:32.317Z,18.80
2022-09-10T15:33:00.485Z,18.70
2022-09-10T15:35:29.818Z,18.70
2022-09-10T15:37:58.174Z,18.60
2022-09-10T15:40:26.256Z,18.60
2022-09-10T15:42:54.328Z,18.60
2022-09-10T15:45:22.369Z,18.60
2022-09-10T15:47:51.150Z,18.50
2022-09-10T15:50:19.266Z,18.50
2022-09-10T15:52:48.666Z,18.60
2022-09-10T15:55:16.836Z,18.50
2022-09-10T15:57:44.847Z,18.60
2022-09-10T16:00:13.941Z,18.50
2022-09-10T16:02:42.261Z,18.50
2022-09-10T16:05:10.880Z,18.50
2022-09-10T16:07:38.859Z,18.50
2022-09-10T16:10:09.332Z,18.60
2022-09-10T16:12:37.352Z,18.40
2022-09-10T16:15:06.024Z,18.40
2022-09-10T16:17:34.216Z,18.40
2022-09-10T16:20:02.588Z,18.40
2022-09-10T16:22:31.932Z,18.40
2022-09-10T16:24:59.959Z,18.30
2022-09-10T16:27:29.570Z,18.30
2022-09-10T16:29:57.524Z,18.30
2022-09-10T16:32:25.727Z,18.20
2022-09-10T16:34:53.721Z,18.30
2022-09-10T16:37:23.385Z,18.20
2022-09-10T16:39:51.314Z,18.20
2022-09-10T16:42:19.544Z,18.30
2022-09-10T16:44:49.119Z,18.20
2022-09-10T16:47:17.089Z,18.10
2022-09-10T16:49:45.578Z,18.20
2022-09-10T16:52:13.565Z,18.10
2022-09-10T16:54:42.102Z,18.10
2022-09-10T16:57:10.234Z,18.10
2022-09-10T16:59:38.276Z,18.00
2022-09-10T17:02:07.784Z,17.90
2022-09-10T17:04:35.992Z,17.90
2022-09-10T17:07:04.042Z,17.90
2022-09-10T17:09:32.043Z,17.80
2022-09-10T17:12:00.642Z,17.80
2022-09-10T17:14:28.611Z,17.80
2022-09-10T17:16:56.653Z,17.60
2022-09-10T17:19:26.439Z,17.60
2022-09-10T17:21:56.195Z,17.60
2022-09-10T17:24:27.530Z,17.50
2022-09-10T17:26:56.132Z,17.60
2022-09-10T17:29:26.122Z,17.60
2022-09-10T17:31:55.354Z,17.50
2022-09-10T17:34:24.585Z,17.50
2022-09-10T17:36:54.215Z,17.50
2022-09-10T17:39:22.800Z,17.40
2022-09-10T17:41:55.266Z,17.40
2022-09-10T17:44:24.417Z,17.40
2022-09-10T17:46:52.543Z,17.30
2022-09-10T17:49:20.657Z,17.20
2022-09-10T17:51:48.772Z,17.20
2022-09-10T17:54:18.441Z,17.10
2022-09-10T17:56:46.502Z,17.10
2022-09-10T17:59:15.033Z,17.00
2022-09-10T18:01:43.258Z,17.00
2022-09-10T18:04:14.325Z,17.00
2022-09-10T18:06:43.788Z,16.90
2022-09-10T18:09:12.420Z,16.90
2022-09-10T18:11:42.603Z,16.90
2022-09-10T18:14:17.543Z,16.80
2022-09-10T18:16:46.637Z,16.80
2022-09-10T18:19:16.934Z,16.80
2022-09-10T18:21:46.413Z,16.80
2022-09-10T18:24:16.942Z,16.70
2022-09-10T18:26:48.184Z,16.80
2022-09-10T18:29:20.051Z,16.70
2022-09-10T18:31:51.194Z,16.60
2022-09-10T18:34:23.389Z,16.60
2022-09-10T18:36:54.468Z,16.60
2022-09-10T18:39:24.948Z,16.50
2022-09-10T18:41:54.793Z,16.50
2022-09-10T18:44:25.428Z,16.50
2022-09-10T18:46:54.225Z,16.50
2022-09-10T18:49:24.550Z,16.50
2022-09-10T18:51:54.037Z,16.50
2022-09-10T18:54:23.209Z,16.50
2022-09-10T18:56:51.755Z,16.40
2022-09-10T18:59:23.301Z,16.40
2022-09-10T19:01:53.081Z,16.30
2022-09-10T19:04:23.747Z,16.30
2022-09-10T19:06:52.469Z,16.20
2022-09-10T19:09:22.369Z,16.20
2022-09-10T19:11:53.020Z,16.30
2022-09-10T19:14:26.114Z,16.20
2022-09-10T19:16:56.462Z,16.20
2022-09-10T19:19:26.341Z,16.20
2022-09-10T19:21:57.023Z,16.20
2022-09-10T19:24:43.931Z,16.20
2022-09-10T19:27:12.622Z,16.20
2022-09-10T19:29:43.241Z,16.20
2022-09-10T19:32:11.602Z,16.10
2022-09-10T19:34:39.906Z,16.10
2022-09-10T19:37:08.218Z,16.10
2022-09-10T19:39:36.304Z,16.00
2022-09-10T19:42:05.710Z,16.00
2022-09-10T19:44:34.585Z,16.00
2022-09-10T19:47:04.441Z,16.10
2022-09-10T19:49:34.123Z,16.10
2022-09-10T19:52:03.594Z,16.00
2022-09-10T19:54:31.950Z,16.00
2022-09-10T19:56:59.927Z,16.00
2022-09-10T19:59:28.222Z,15.90
2022-09-10T20:01:56.468Z,15.80
2022-09-10T20:04:27.670Z,15.90
2022-09-10T20:06:55.729Z,15.80
2022-09-10T20:09:24.214Z,15.80
2022-09-10T20:11:52.219Z,15.80
2022-09-10T20:14:21.018Z,15.80
2022-09-10T20:16:49.345Z,15.90
2022-09-10T20:19:18.751Z,15.80
2022-09-10T20:21:48.219Z,15.70
2022-09-10T20:24:17.228Z,15.70
2022-09-10T20:26:46.664Z,15.70
2022-09-10T20:29:16.681Z,15.70
2022-09-10T20:31:46.343Z,15.70
2022-09-10T20:34:16.922Z,15.70
2022-09-10T20:36:45.226Z,15.60
2022-09-10T20:39:17.051Z,15.60
2022-09-10T20:41:45.720Z,15.60
2022-09-10T20:44:16.314Z,15.60
2022-09-10T20:46:45.375Z,15.60
2022-09-10T20:49:15.910Z,15.60
2022-09-10T20:51:44.869Z,15.50
2022-09-10T20:54:16.202Z,15.50
2022-09-10T20:56:44.463Z,15.50
2022-09-10T20:59:14.711Z,15.40
2022-09-10T21:01:44.539Z,15.40
2022-09-10T21:04:13.215Z,15.30
2022-09-10T21:06:41.294Z,15.40
2022-09-10T21:09:09.728Z,15.30
2022-09-10T21:11:39.268Z,15.30
2022-09-10T21:14:09.138Z,15.20
2022-09-10T21:16:38.772Z,15.10
2022-09-10T21:19:08.850Z,15.10
2022-09-10T21:21:39.548Z,15.20
2022-09-10T21:24:10.894Z,15.20
2022-09-10T21:26:43.481Z,15.20
2022-09-10T21:29:14.424Z,15.20
2022-09-10T21:31:42.864Z,15.20
2022-09-10T21:34:11.223Z,15.10
2022-09-10T21:36:41.131Z,15.10
2022-09-10T21:39:12.919Z,15.10
2022-09-10T21:41:45.151Z,15.10
2022-09-10T21:44:15.257Z,15.10
2022-09-10T21:46:44.150Z,15.00
2022-09-10T21:49:12.243Z,15.00
2022-09-10T21:51:41.191Z,15.00
2022-09-10T21:54:14.061Z,15.00
2022-09-10T21:56:43.631Z,15.00
2022-09-10T21:59:12.889Z,15.10
2022-09-10T22:01:43.862Z,15.10
2022-09-10T22:04:12.868Z,15.10
2022-09-10T22:06:40.951Z,15.10
2022-09-10T22:09:11.257Z,15.20
2022-09-10T22:11:41.833Z,15.10
2022-09-10T22:14:14.943Z,15.10
2022-09-10T22:16:43.445Z,15.10
2022-09-10T22:19:14.269Z,15.00
2022-09-10T22:21:42.551Z,14.90
2022-09-10T22:24:12.703Z,14.70
2022-09-10T22:26:43.506Z,14.60
2022-09-10T22:29:13.494Z,14.50
2022-09-10T22:31:41.724Z,14.50
2022-09-10T22:34:14.479Z,14.50
2022-09-10T22:36:43.968Z,14.60
2022-09-10T22:39:13.590Z,14.50
2022-09-10T22:41:42.018Z,14.60
2022-09-10T22:44:10.633Z,14.70
2022-09-10T22:46:41.338Z,14.80
2022-09-10T22:49:09.925Z,14.70
2022-09-10T22:51:40.918Z,14.70
2022-09-10T22:54:10.703Z,14.60
2022-09-10T22:56:39.605Z,14.60
2022-09-10T22:59:08.549Z,14.50
2022-09-10T23:01:38.506Z,14.50
2022-09-10T23:04:12.436Z,14.50
2022-09-10T23:06:41.196Z,14.50
2022-09-10T23:09:12.559Z,14.50
2022-09-10T23:11:41.649Z,14.50
2022-09-10T23:14:13.119Z,14.60
2022-09-10T23:16:42.914Z,14.60
2022-09-10T23:19:14.845Z,14.70
2022-09-10T23:21:45.085Z,14.70
2022-09-10T23:24:15.755Z,14.80
2022-09-10T23:26:45.161Z,14.60
2022-09-10T23:29:14.242Z,14.60
2022-09-10T23:31:42.375Z,14.50
2022-09-10T23:34:14.091Z,14.50
2022-09-10T23:36:44.294Z,14.60
2022-09-10T23:39:14.712Z,14.60
2022-09-10T23:41:43.195Z,14.50
2022-09-10T23:44:11.681Z,14.50
2022-09-10T23:46:39.923Z,14.50
2022-09-10T23:49:09.001Z,14.40
2022-09-10T23:51:39.116Z,14.50
2022-09-10T23:54:07.373Z,14.50
2022-09-10T23:56:35.723Z,14.60
2022-09-10T23:59:03.821Z,14.70
